createdAt,value
2023-01-11T00:01:53.681Z,1.40
2023-01-11T00:04:20.584Z,1.25
2023-01-11T00:06:47.058Z,0.82
2023-01-11T00:09:13.674Z,0.80
2023-01-11T00:11:40.091Z,0.98
2023-01-11T00:14:06.534Z,0.90
2023-01-11T00:16:33.067Z,0.80
2023-01-11T00:18:59.463Z,0.90
2023-01-11T00:21:26.690Z,0.80
2023-01-11T00:23:53.331Z,0.90
2023-01-11T00:26:19.720Z,0.70
2023-01-11T00:28:49.394Z,0.70
2023-01-11T00:31:17.292Z,0.80
2023-01-11T00:33:43.866Z,0.77
2023-01-11T00:36:10.582Z,0.75
2023-01-11T00:38:53.884Z,0.80
2023-01-11T00:41:40.839Z,0.70
2023-01-11T00:44:45.838Z,0.88
2023-01-11T00:47:35.576Z,0.70
2023-01-11T00:50:03.008Z,0.80
2023-01-11T00:52:30.543Z,0.82
2023-01-11T00:54:56.930Z,1.17
2023-01-11T00:57:23.411Z,0.90
2023-01-11T00:59:49.852Z,0.85
2023-01-11T01:02:16.455Z,0.90
2023-01-11T01:04:42.927Z,0.90
2023-01-11T01:07:09.616Z,0.98
2023-01-11T01:09:36.145Z,1.00
2023-01-11T01:12:02.941Z,1.00
2023-01-11T01:14:32.984Z,1.33
2023-01-11T01:17:02.302Z,1.13
2023-01-11T01:19:30.918Z,1.17
2023-01-11T01:21:59.405Z,1.00
2023-01-11T01:24:30.808Z,0.93
2023-01-11T01:26:58.264Z,1.00
2023-01-11T01:29:25.713Z,0.85
2023-01-11T01:31:52.177Z,0.90
2023-01-11T01:34:18.597Z,0.80
2023-01-11T01:36:45.028Z,0.80
2023-01-11T01:39:12.968Z,0.90
2023-01-11T01:41:39.804Z,0.80
2023-01-11T01:44:44.647Z,0.60
2023-01-11T01:47:11.956Z,1.02
2023-01-11T01:49:38.651Z,0.90
2023-01-11T01:52:05.586Z,1.00
2023-01-11T01:54:36.562Z,0.93
2023-01-11T01:57:09.914Z,1.00
2023-01-11T01:59:36.700Z,0.90
2023-01-11T02:02:04.307Z,0.90
2023-01-11T02:04:43.078Z,0.80
2023-01-11T02:07:13.280Z,1.10
2023-01-11T02:10:09.117Z,0.90
2023-01-11T02:15:20.879Z,0.98
2023-01-11T02:17:47.454Z,1.00
2023-01-11T02:20:32.671Z,1.00
2023-01-11T02:23:27.061Z,1.05
2023-01-11T02:26:12.320Z,1.00
2023-01-11T02:29:10.526Z,1.10
2023-01-11T02:31:40.026Z,1.17
2023-01-11T02:34:34.300Z,0.80
2023-01-11T02:37:27.552Z,1.00
2023-01-11T02:40:12.494Z,1.00
2023-01-11T02:43:11.661Z,1.17
2023-01-11T02:45:59.189Z,0.90
2023-01-11T02:48:32.532Z,0.90
2023-01-11T02:51:26.944Z,1.08
2023-01-11T02:54:02.625Z,0.80
2023-01-11T02:56:33.565Z,1.10
2023-01-11T02:59:01.341Z,1.10
2023-01-11T03:01:27.824Z,1.10
2023-01-11T03:03:54.628Z,1.00
2023-01-11T03:06:26.217Z,1.15
2023-01-11T03:09:13.732Z,0.93
2023-01-11T03:12:26.967Z,0.85
2023-01-11T03:15:12.417Z,1.10
2023-01-11T03:18:00.417Z,0.93
2023-01-11T03:20:45.948Z,1.20
2023-01-11T03:25:48.080Z,1.23
2023-01-11T03:28:36.309Z,1.20
2023-01-11T03:31:18.311Z,1.30
2023-01-11T03:33:48.802Z,1.25
2023-01-11T03:36:32.663Z,1.13
2023-01-11T03:39:44.744Z,1.20
2023-01-11T03:42:15.593Z,1.05
2023-01-11T03:44:51.807Z,1.00
2023-01-11T03:47:22.232Z,1.15
2023-01-11T03:49:58.885Z,1.00
2023-01-11T03:52:31.726Z,1.10
2023-01-11T03:54:59.305Z,2.35
2023-01-11T03:57:39.505Z,1.20
2023-01-11T04:00:08.159Z,1.10
2023-01-11T04:02:39.267Z,0.85
2023-01-11T04:05:07.210Z,1.20
2023-01-11T04:07:33.878Z,0.90
2023-01-11T04:10:00.361Z,0.90
2023-01-11T04:12:27.420Z,1.00
2023-01-11T04:14:53.976Z,0.90
2023-01-11T04:17:20.453Z,0.90
2023-01-11T04:19:46.896Z,0.90
2023-01-11T04:22:13.723Z,0.90
2023-01-11T04:24:40.115Z,0.80
2023-01-11T04:27:06.626Z,0.70
2023-01-11T04:29:33.044Z,0.73
2023-01-11T04:31:59.611Z,0.80
2023-01-11T04:34:25.976Z,0.70
2023-01-11T04:36:52.415Z,0.90
2023-01-11T04:39:18.888Z,0.70
2023-01-11T04:42:03.959Z,0.80
2023-01-11T04:44:30.400Z,0.70
2023-01-11T04:46:56.879Z,0.73
2023-01-11T04:49:23.259Z,0.80
2023-01-11T04:51:49.777Z,0.70
2023-01-11T04:54:16.683Z,0.90
2023-01-11T04:56:43.158Z,0.80
2023-01-11T04:59:09.655Z,0.70
2023-01-11T05:01:36.276Z,0.50
2023-01-11T05:04:02.839Z,0.60
2023-01-11T05:06:29.538Z,0.60
2023-01-11T05:08:56.055Z,0.60
2023-01-11T05:11:22.621Z,0.52
2023-01-11T05:13:49.500Z,0.60
2023-01-11T05:16:21.759Z,0.70
2023-01-11T05:18:51.132Z,0.88
2023-01-11T05:21:20.172Z,0.80
2023-01-11T05:23:47.500Z,0.80
2023-01-11T05:26:27.127Z,0.80
2023-01-11T05:28:54.686Z,0.77
2023-01-11T05:31:21.934Z,1.00
2023-01-11T05:33:48.655Z,0.80
2023-01-11T05:36:20.661Z,0.82
2023-01-11T05:38:49.007Z,0.80
2023-01-11T05:41:16.970Z,0.75
2023-01-11T05:44:03.352Z,0.80
2023-01-11T05:46:31.134Z,0.70
2023-01-11T05:48:59.070Z,0.80
2023-01-11T05:51:26.292Z,0.80
2023-01-11T05:53:55.599Z,0.68
2023-01-11T05:56:22.017Z,0.60
2023-01-11T05:58:49.810Z,0.80
2023-01-11T06:01:19.301Z,0.70
2023-01-11T06:03:46.307Z,0.63
2023-01-11T06:06:13.568Z,0.75
2023-01-11T06:08:39.964Z,0.77
2023-01-11T06:11:06.800Z,0.60
2023-01-11T06:13:33.899Z,0.60
2023-01-11T06:16:06.600Z,0.60
2023-01-11T06:18:35.353Z,0.60
2023-01-11T06:21:02.709Z,0.85
2023-01-11T06:23:31.626Z,0.50
2023-01-11T06:26:08.975Z,0.50
2023-01-11T06:28:36.617Z,0.70
2023-01-11T06:31:04.182Z,0.60
2023-01-11T06:33:30.940Z,0.50
2023-01-11T06:35:58.160Z,0.60
2023-01-11T06:38:26.121Z,0.50
2023-01-11T06:40:57.642Z,0.80
2023-01-11T06:43:25.233Z,0.63
2023-01-11T06:45:51.993Z,0.60
2023-01-11T06:48:19.752Z,0.60
2023-01-11T06:50:55.360Z,0.70
2023-01-11T06:53:23.110Z,0.52
2023-01-11T06:55:51.196Z,0.60
2023-01-11T06:58:17.744Z,0.73
2023-01-11T07:00:44.274Z,0.55
2023-01-11T07:03:11.528Z,0.70
2023-01-11T07:05:38.293Z,0.70
2023-01-11T07:08:05.225Z,0.70
2023-01-11T07:10:31.720Z,0.88
2023-01-11T07:12:58.128Z,0.80
2023-01-11T07:15:24.607Z,0.60
2023-01-11T07:17:55.782Z,0.70
2023-01-11T07:20:23.107Z,0.63
2023-01-11T07:22:50.369Z,0.60
2023-01-11T07:25:17.631Z,0.70
2023-01-11T07:27:44.436Z,0.57
2023-01-11T07:30:11.428Z,0.70
2023-01-11T07:32:37.998Z,0.70
2023-01-11T07:35:04.706Z,0.70
2023-01-11T07:37:32.704Z,0.77
2023-01-11T07:39:59.308Z,0.73
2023-01-11T07:42:44.954Z,0.63
2023-01-11T07:45:11.413Z,0.50
2023-01-11T07:47:38.981Z,0.60
2023-01-11T07:50:06.023Z,0.60
2023-01-11T07:52:32.424Z,0.70
2023-01-11T07:55:02.453Z,0.70
2023-01-11T07:57:30.407Z,0.70
2023-01-11T07:59:56.981Z,0.57
2023-01-11T08:02:23.589Z,0.80
2023-01-11T08:04:50.403Z,0.70
2023-01-11T08:07:16.870Z,0.68
2023-01-11T08:09:43.428Z,0.75
2023-01-11T08:12:28.534Z,0.98
2023-01-11T08:14:55.084Z,0.70
2023-01-11T08:17:21.648Z,0.85
2023-01-11T08:19:48.235Z,0.77
2023-01-11T08:22:14.618Z,0.68
2023-01-11T08:24:41.201Z,0.60
2023-01-11T08:27:07.823Z,0.70
2023-01-11T08:29:34.587Z,0.73
2023-01-11T08:32:01.193Z,0.68
2023-01-11T08:34:29.019Z,0.60
2023-01-11T08:37:01.862Z,0.75
2023-01-11T08:39:31.703Z,0.80
2023-01-11T08:41:59.241Z,0.65
2023-01-11T08:44:33.746Z,0.50
2023-01-11T08:49:27.300Z,0.50
2023-01-11T08:51:53.706Z,0.60
2023-01-11T08:54:20.345Z,0.52
2023-01-11T08:56:46.751Z,0.52
2023-01-11T08:59:13.619Z,0.50
2023-01-11T09:01:40.197Z,0.45
2023-01-11T09:04:15.811Z,0.60
2023-01-11T09:06:45.794Z,0.57
2023-01-11T09:09:12.165Z,0.70
2023-01-11T09:11:57.273Z,0.60
2023-01-11T09:14:27.155Z,0.80
2023-01-11T09:16:54.628Z,0.60
2023-01-11T09:19:21.692Z,0.70
2023-01-11T09:21:48.609Z,0.50
2023-01-11T09:24:15.312Z,0.68
2023-01-11T09:26:43.432Z,0.50
2023-01-11T09:29:11.386Z,0.60
2023-01-11T09:31:38.366Z,0.60
2023-01-11T09:34:06.834Z,0.60
2023-01-11T09:36:35.776Z,0.50
2023-01-11T09:39:06.249Z,0.70
2023-01-11T09:41:50.722Z,0.50
2023-01-11T09:44:26.575Z,0.43
2023-01-11T09:47:00.564Z,0.50
2023-01-11T09:49:34.619Z,0.70
2023-01-11T09:52:19.034Z,0.60
2023-01-11T09:54:47.127Z,0.60
2023-01-11T09:57:43.654Z,0.50
2023-01-11T10:00:27.799Z,0.60
2023-01-11T10:03:24.081Z,0.70
2023-01-11T10:06:01.222Z,0.50
2023-01-11T10:18:28.383Z,0.70
2023-01-11T10:18:32.627Z,0.63
2023-01-11T10:21:21.190Z,0.70
2023-01-11T10:24:02.729Z,0.60
2023-01-11T10:26:39.540Z,0.77
2023-01-11T10:29:21.061Z,0.63
2023-01-11T10:32:13.401Z,0.60
2023-01-11T10:34:58.383Z,0.80
2023-01-11T10:37:48.559Z,0.90
2023-01-11T10:40:31.326Z,0.75
2023-01-11T10:43:04.668Z,0.93
2023-01-11T10:45:40.168Z,0.70
2023-01-11T10:48:26.647Z,0.70
2023-01-11T10:51:19.601Z,0.70
2023-01-11T10:54:01.609Z,0.70
2023-01-11T10:57:01.887Z,0.60
2023-01-11T11:00:07.502Z,0.93
2023-01-11T11:02:34.127Z,1.10
2023-01-11T11:05:10.799Z,1.10
2023-01-11T11:08:26.329Z,1.50
2023-01-11T11:11:02.549Z,1.98
2023-01-11T11:14:01.496Z,2.28
2023-01-11T11:16:43.387Z,1.52
2023-01-11T11:19:15.050Z,1.98
2023-01-11T11:21:42.920Z,2.42
2023-01-11T11:24:35.801Z,2.92
2023-01-11T11:27:37.689Z,3.10
2023-01-11T11:30:04.901Z,2.90
2023-01-11T11:32:37.965Z,3.05
2023-01-11T11:35:10.449Z,4.05
2023-01-11T11:37:44.297Z,2.95
2023-01-11T11:40:33.433Z,3.20
2023-01-11T11:43:10.878Z,3.05
2023-01-11T11:46:07.772Z,2.67
2023-01-11T11:48:34.939Z,2.78
2023-01-11T11:51:04.925Z,3.22
2023-01-11T11:53:46.005Z,2.58
2023-01-11T11:56:33.038Z,3.00
2023-01-11T11:59:06.865Z,2.80
2023-01-11T12:01:36.566Z,2.55
2023-01-11T12:04:23.335Z,2.42
2023-01-11T12:07:15.945Z,2.42
2023-01-11T12:09:47.934Z,3.78
2023-01-11T12:12:20.508Z,2.28
2023-01-11T12:15:07.594Z,2.55
2023-01-11T12:17:35.235Z,2.30
2023-01-11T12:20:01.870Z,2.33
2023-01-11T12:22:29.126Z,2.25
2023-01-11T12:25:13.900Z,2.90
2023-01-11T12:28:08.012Z,2.47
2023-01-11T12:30:52.363Z,2.58
2023-01-11T12:33:44.396Z,2.75
2023-01-11T12:36:30.848Z,2.20
2023-01-11T12:39:11.164Z,2.58
2023-01-11T12:42:19.518Z,2.33
2023-01-11T12:45:02.840Z,2.30
2023-01-11T12:47:55.076Z,2.10
2023-01-11T12:50:24.952Z,2.50
2023-01-11T12:52:57.582Z,1.95
2023-01-11T12:55:26.837Z,2.00
2023-01-11T12:58:05.373Z,1.70
2023-01-11T13:01:09.459Z,2.30
2023-01-11T13:03:51.174Z,2.38
2023-01-11T13:06:30.535Z,2.83
2023-01-11T13:09:07.796Z,2.55
2023-01-11T13:11:42.650Z,1.83
2023-01-11T13:15:03.678Z,2.15
2023-01-11T13:17:59.065Z,2.10
2023-01-11T13:20:58.549Z,1.98
2023-01-11T13:23:39.249Z,1.88
2023-01-11T13:26:35.280Z,2.08
2023-01-11T13:29:13.645Z,2.80
2023-01-11T13:31:41.326Z,2.10
2023-01-11T13:34:25.067Z,1.60
2023-01-11T13:36:55.688Z,1.95
2023-01-11T13:39:31.871Z,3.03
2023-01-11T13:42:04.189Z,1.88
2023-01-11T13:44:37.336Z,1.67
2023-01-11T13:47:16.138Z,1.92
2023-01-11T13:50:16.715Z,2.08
2023-01-11T13:53:09.984Z,2.00
2023-01-11T13:55:39.615Z,3.15
2023-01-11T13:58:16.324Z,2.17
2023-01-11T14:00:55.224Z,2.00
2023-01-11T14:03:53.892Z,1.88
2023-01-11T14:06:42.231Z,2.05
2023-01-11T14:09:27.365Z,2.08
2023-01-11T14:12:21.979Z,1.75
2023-01-11T14:15:03.655Z,1.60
2023-01-11T14:17:51.132Z,1.73
2023-01-11T14:20:20.467Z,1.73
2023-01-11T14:23:05.478Z,1.95
2023-01-11T14:25:48.088Z,1.70
2023-01-11T14:28:59.272Z,2.13
2023-01-11T14:31:40.911Z,1.95
2023-01-11T14:35:03.245Z,1.60
2023-01-11T14:38:00.304Z,1.38
2023-01-11T14:40:41.562Z,1.60
2023-01-11T14:43:24.214Z,1.63
2023-01-11T14:46:09.151Z,1.63
2023-01-11T14:48:50.545Z,2.45
2023-01-11T14:51:30.613Z,1.70
2023-01-11T14:54:12.899Z,1.67
2023-01-11T14:56:42.309Z,2.00
2023-01-11T14:59:30.616Z,1.90
2023-01-11T15:02:02.972Z,1.98
2023-01-11T15:04:43.832Z,2.33
2023-01-11T15:07:23.718Z,1.85
2023-01-11T15:09:53.467Z,1.83
2023-01-11T15:12:22.769Z,1.92
2023-01-11T15:15:12.277Z,2.70
2023-01-11T15:17:58.716Z,1.80
2023-01-11T15:20:26.719Z,2.13
2023-01-11T15:23:01.935Z,1.67
2023-01-11T15:28:43.119Z,1.70
2023-01-11T15:31:34.095Z,1.50
2023-01-11T15:34:17.211Z,2.10
2023-01-11T15:36:55.125Z,1.73
2023-01-11T15:39:33.290Z,1.80
2023-01-11T15:42:14.897Z,2.50
2023-01-11T15:45:06.972Z,2.13
2023-01-11T15:48:02.760Z,1.77
2023-01-11T15:50:48.036Z,2.25
2023-01-11T15:53:45.693Z,2.33
2023-01-11T15:56:18.405Z,2.95
2023-01-11T15:59:30.142Z,2.22
2023-01-11T16:02:15.504Z,2.20
2023-01-11T16:05:17.325Z,2.45
2023-01-11T16:07:56.097Z,1.50
2023-01-11T16:10:42.463Z,1.80
2023-01-11T16:13:23.987Z,1.60
2023-01-11T16:16:15.395Z,2.03
2023-01-11T16:18:56.051Z,3.00
2023-01-11T16:21:35.932Z,2.25
2023-01-11T16:24:05.843Z,1.90
2023-01-11T16:26:35.610Z,2.85
2023-01-11T16:29:11.833Z,12.38
2023-01-11T16:31:56.272Z,3.25
2023-01-11T16:34:23.455Z,2.28
2023-01-11T16:36:49.890Z,1.95
2023-01-11T16:39:22.279Z,4.43
2023-01-11T16:41:59.377Z,3.67
2023-01-11T16:44:44.823Z,2.25
2023-01-11T16:47:16.986Z,2.13
2023-01-11T16:49:48.924Z,2.90
2023-01-11T16:52:27.586Z,1.70
2023-01-11T16:54:56.157Z,4.05
2023-01-11T16:57:29.987Z,2.00
2023-01-11T17:00:01.873Z,1.73
2023-01-11T17:02:38.657Z,2.42
2023-01-11T17:05:25.500Z,3.65
2023-01-11T17:07:51.890Z,2.15
2023-01-11T17:10:28.624Z,2.08
2023-01-11T17:13:36.660Z,2.38
2023-01-11T17:16:13.675Z,2.08
2023-01-11T17:18:41.831Z,2.13
2023-01-11T17:21:26.564Z,4.95
2023-01-11T17:24:00.517Z,2.88
2023-01-11T17:26:41.277Z,2.80
2023-01-11T17:29:08.403Z,2.72
2023-01-11T17:31:36.784Z,2.55
2023-01-11T17:34:18.984Z,2.20
2023-01-11T17:36:47.552Z,2.70
2023-01-11T17:39:29.796Z,2.63
2023-01-11T17:42:16.576Z,2.20
2023-01-11T17:45:03.664Z,2.28
2023-01-11T17:47:31.178Z,2.35
2023-01-11T17:50:00.344Z,1.73
2023-01-11T17:52:29.462Z,1.88
2023-01-11T17:55:16.958Z,1.48
2023-01-11T17:57:44.185Z,1.48
2023-01-11T18:00:28.669Z,1.75
2023-01-11T18:02:55.825Z,1.73
2023-01-11T18:05:27.179Z,1.77
2023-01-11T18:07:57.479Z,1.52
2023-01-11T18:10:27.254Z,1.63
2023-01-11T18:12:56.175Z,1.30
2023-01-11T18:15:30.931Z,1.63
2023-01-11T18:17:58.282Z,3.05
2023-01-11T18:20:24.750Z,2.00
2023-01-11T18:22:54.276Z,1.30
2023-01-11T18:25:23.842Z,2.03
2023-01-11T18:27:51.053Z,1.48
2023-01-11T18:30:32.574Z,1.92
2023-01-11T18:33:03.913Z,1.52
2023-01-11T18:35:30.976Z,1.98
2023-01-11T18:37:57.515Z,1.38
2023-01-11T18:40:23.952Z,1.30
2023-01-11T18:42:52.521Z,2.45
2023-01-11T18:45:20.202Z,1.73
2023-01-11T18:47:46.700Z,1.90
2023-01-11T18:50:13.501Z,2.22
2023-01-11T18:52:39.993Z,2.58
2023-01-11T18:55:06.668Z,1.58
2023-01-11T18:57:33.159Z,1.70
2023-01-11T18:59:59.678Z,1.48
2023-01-11T19:02:28.942Z,3.03
2023-01-11T19:04:56.971Z,2.65
2023-01-11T19:07:25.466Z,1.23
2023-01-11T19:09:54.631Z,2.05
2023-01-11T19:12:21.157Z,2.38
2023-01-11T19:14:47.632Z,1.75
2023-01-11T19:17:14.217Z,1.50
2023-01-11T19:19:40.912Z,2.38
2023-01-11T19:22:07.690Z,1.77
2023-01-11T19:24:34.282Z,1.77
2023-01-11T19:27:00.859Z,1.55
2023-01-11T19:29:27.781Z,2.58
2023-01-11T19:31:55.610Z,1.80
2023-01-11T19:34:23.391Z,1.63
2023-01-11T19:36:51.696Z,3.15
2023-01-11T19:39:18.476Z,3.55
2023-01-11T19:41:54.025Z,3.42
2023-01-11T19:44:40.465Z,2.45
2023-01-11T19:47:13.377Z,4.13
2023-01-11T19:49:41.599Z,3.10
2023-01-11T19:52:13.003Z,1.67
2023-01-11T19:54:44.274Z,2.63
2023-01-11T19:57:12.239Z,5.72
2023-01-11T19:59:38.847Z,2.42
2023-01-11T20:02:05.398Z,2.70
2023-01-11T20:04:32.312Z,2.15
2023-01-11T20:06:58.978Z,2.08
2023-01-11T20:09:25.441Z,3.05
2023-01-11T20:11:53.172Z,2.53
2023-01-11T20:14:20.033Z,2.83
2023-01-11T20:16:46.484Z,2.53
2023-01-11T20:19:13.258Z,2.03
2023-01-11T20:21:39.816Z,1.80
2023-01-11T20:24:06.644Z,2.38
2023-01-11T20:26:34.045Z,2.88
2023-01-11T20:29:01.596Z,4.10
2023-01-11T20:31:31.454Z,14.07
2023-01-11T20:33:59.638Z,7.82
2023-01-11T20:36:26.733Z,5.35
2023-01-11T20:38:54.162Z,2.53
2023-01-11T20:41:43.086Z,2.30
2023-01-11T20:44:10.240Z,3.40
2023-01-11T20:46:37.387Z,2.40
2023-01-11T20:49:05.309Z,1.95
2023-01-11T20:51:32.052Z,1.90
2023-01-11T20:53:58.499Z,1.85
2023-01-11T20:56:25.087Z,3.10
2023-01-11T20:58:52.042Z,2.13
2023-01-11T21:01:29.060Z,2.45
2023-01-11T21:04:00.002Z,1.73
2023-01-11T21:06:27.525Z,1.60
2023-01-11T21:08:58.266Z,2.58
2023-01-11T21:11:25.227Z,2.17
2023-01-11T21:13:53.403Z,1.60
2023-01-11T21:16:22.512Z,1.63
2023-01-11T21:18:58.129Z,2.33
2023-01-11T21:21:25.755Z,2.25
2023-01-11T21:23:57.312Z,1.77
2023-01-11T21:26:25.527Z,1.55
2023-01-11T21:28:55.462Z,1.13
2023-01-11T21:31:22.687Z,1.63
2023-01-11T21:33:49.545Z,1.95
2023-01-11T21:36:19.526Z,1.55
2023-01-11T21:38:46.416Z,2.42
2023-01-11T21:41:44.092Z,1.70
2023-01-11T21:44:12.578Z,2.38
2023-01-11T21:46:40.076Z,1.95
2023-01-11T21:49:07.043Z,1.85
2023-01-11T21:51:34.391Z,1.40
2023-01-11T21:54:07.435Z,2.05
2023-01-11T21:56:34.988Z,1.83
2023-01-11T21:59:01.557Z,1.48
2023-01-11T22:01:28.800Z,1.70
2023-01-11T22:03:55.547Z,2.05
2023-01-11T22:06:22.199Z,1.40
2023-01-11T22:08:48.696Z,1.60
2023-01-11T22:11:17.018Z,1.80
2023-01-11T22:13:43.751Z,1.92
2023-01-11T22:16:16.750Z,2.95
2023-01-11T22:18:44.211Z,1.25
2023-01-11T22:21:17.702Z,1.73
2023-01-11T22:23:46.046Z,1.08
2023-01-11T22:26:18.008Z,1.77
2023-01-11T22:29:04.759Z,1.42
2023-01-11T22:31:32.658Z,1.85
2023-01-11T22:34:00.303Z,1.20
2023-01-11T22:36:28.371Z,1.40
2023-01-11T22:38:55.204Z,2.25
2023-01-11T22:41:22.244Z,1.58
2023-01-11T22:43:49.442Z,1.70
2023-01-11T22:46:18.538Z,1.60
2023-01-11T22:48:46.908Z,2.42
2023-01-11T22:51:13.849Z,1.45
2023-01-11T22:53:42.195Z,1.83
2023-01-11T22:56:10.269Z,2.22
2023-01-11T22:58:37.116Z,1.85
2023-01-11T23:01:10.836Z,1.50
2023-01-11T23:03:38.137Z,2.63
2023-01-11T23:06:04.894Z,1.52
2023-01-11T23:08:35.657Z,2.03
2023-01-11T23:11:02.103Z,1.85
2023-01-11T23:13:47.167Z,1.77
2023-01-11T23:16:15.027Z,1.23
2023-01-11T23:18:41.546Z,1.60
2023-01-11T23:21:08.341Z,1.63
2023-01-11T23:23:34.768Z,1.92
2023-01-11T23:26:01.300Z,1.52
2023-01-11T23:28:29.794Z,1.35
2023-01-11T23:30:56.345Z,1.33
2023-01-11T23:33:22.770Z,2.15
2023-01-11T23:35:59.180Z,1.60
2023-01-11T23:38:26.041Z,1.48
2023-01-11T23:41:10.909Z,1.40
2023-01-11T23:43:38.827Z,1.58
2023-01-11T23:46:24.183Z,1.42
2023-01-11T23:48:50.785Z,1.63
2023-01-11T23:51:17.315Z,1.48
2023-01-11T23:53:43.783Z,1.88
2023-01-11T23:56:10.187Z,1.80
2023-01-11T23:58:36.625Z,1.35
